createdAt,value
2023-03-22T00:00:00.593Z,2.42
2023-03-22T00:02:27.476Z,2.42
2023-03-22T00:04:56.061Z,1.98
2023-03-22T00:07:22.921Z,2.40
2023-03-22T00:09:49.696Z,2.85
2023-03-22T00:12:16.471Z,2.15
2023-03-22T00:14:43.249Z,2.38
2023-03-22T00:17:10.044Z,2.72
2023-03-22T00:19:37.516Z,2.25
2023-03-22T00:22:06.315Z,3.30
2023-03-22T00:24:33.262Z,2.42
2023-03-22T00:27:00.819Z,2.55
2023-03-22T00:29:27.641Z,2.72
2023-03-22T00:31:55.990Z,2.15
2023-03-22T00:34:22.801Z,2.97
2023-03-22T00:36:49.666Z,2.60
2023-03-22T00:39:16.508Z,3.05
2023-03-22T00:41:43.275Z,2.50
2023-03-22T00:44:10.056Z,2.90
2023-03-22T00:46:37.512Z,3.40
2023-03-22T00:49:04.697Z,3.42
2023-03-22T00:51:31.466Z,3.45
2023-03-22T00:53:58.286Z,3.22
2023-03-22T00:56:28.826Z,3.47
2023-03-22T00:58:56.258Z,3.47
2023-03-22T01:01:23.168Z,3.53
2023-03-22T01:03:50.778Z,3.65
2023-03-22T01:06:17.885Z,3.22
2023-03-22T01:08:44.741Z,2.97
2023-03-22T01:11:11.981Z,3.97
2023-03-22T01:13:41.785Z,3.50
2023-03-22T01:16:09.796Z,2.95
2023-03-22T01:18:36.728Z,2.85
2023-03-22T01:21:03.615Z,2.92
2023-03-22T01:23:30.715Z,2.65
2023-03-22T01:25:57.500Z,2.92
2023-03-22T01:28:26.511Z,2.70
2023-03-22T01:30:54.715Z,2.90
2023-03-22T01:33:21.546Z,3.75
2023-03-22T01:35:48.632Z,3.13
2023-03-22T01:38:15.591Z,2.78
2023-03-22T01:40:42.676Z,2.60
2023-03-22T01:43:15.668Z,2.30
2023-03-22T01:45:52.665Z,2.80
2023-03-22T01:48:19.431Z,2.70
2023-03-22T01:50:56.078Z,2.63
2023-03-22T01:53:25.770Z,2.55
2023-03-22T01:55:53.636Z,2.40
2023-03-22T01:58:20.668Z,2.85
2023-03-22T02:00:49.885Z,2.63
2023-03-22T02:03:26.757Z,2.85
2023-03-22T02:05:54.435Z,2.35
2023-03-22T02:08:21.250Z,2.83
2023-03-22T02:10:48.202Z,3.03
2023-03-22T02:13:47.858Z,2.42
2023-03-22T02:16:23.664Z,2.63
2023-03-22T02:19:01.577Z,3.17
2023-03-22T02:21:38.879Z,2.38
2023-03-22T02:24:45.650Z,2.72
2023-03-22T02:27:23.679Z,2.90
2023-03-22T02:30:13.342Z,3.30
2023-03-22T02:32:54.893Z,3.03
2023-03-22T02:37:48.362Z,3.58
2023-03-22T02:40:48.723Z,4.78
2023-03-22T02:43:21.827Z,4.50
2023-03-22T02:45:56.459Z,3.92
2023-03-22T02:48:30.520Z,5.30
2023-03-22T02:51:04.415Z,6.20
2023-03-22T02:54:06.775Z,6.07
2023-03-22T02:56:52.318Z,6.22
2023-03-22T02:59:22.103Z,6.60
2023-03-22T03:01:58.989Z,7.85
2023-03-22T03:04:31.108Z,7.05
2023-03-22T03:07:05.121Z,8.50
2023-03-22T03:09:33.036Z,8.07
2023-03-22T03:11:59.804Z,7.97
2023-03-22T03:14:29.244Z,9.02
2023-03-22T03:17:34.135Z,10.02
2023-03-22T03:31:48.142Z,11.52
2023-03-22T03:34:17.848Z,12.85
2023-03-22T03:36:55.580Z,12.15
2023-03-22T03:39:27.353Z,12.32
2023-03-22T03:41:56.322Z,13.52
2023-03-22T03:44:24.133Z,13.32
2023-03-22T03:46:52.919Z,13.75
2023-03-22T03:49:22.076Z,14.23
2023-03-22T03:51:54.513Z,13.68
2023-03-22T03:54:23.598Z,14.90
2023-03-22T03:56:50.912Z,14.07
2023-03-22T03:59:18.752Z,13.65
2023-03-22T04:01:50.290Z,14.00
2023-03-22T04:04:26.936Z,14.27
2023-03-22T04:07:00.958Z,13.90
2023-03-22T04:09:30.684Z,12.55
2023-03-22T04:11:58.028Z,14.23
2023-03-22T04:14:26.147Z,14.00
2023-03-22T04:16:53.439Z,13.98
2023-03-22T04:19:20.505Z,13.50
2023-03-22T04:21:47.365Z,13.02
2023-03-22T04:24:14.660Z,13.10
2023-03-22T04:26:41.512Z,13.25
2023-03-22T04:29:08.307Z,12.63
2023-03-22T04:31:39.106Z,12.88
2023-03-22T04:34:06.492Z,12.68
2023-03-22T04:36:39.550Z,13.68
2023-03-22T04:39:09.662Z,13.00
2023-03-22T04:41:37.154Z,12.13
2023-03-22T04:44:05.670Z,12.63
2023-03-22T04:46:35.676Z,12.13
2023-03-22T04:49:03.501Z,11.63
2023-03-22T04:51:32.043Z,13.38
2023-03-22T04:53:59.264Z,11.80
2023-03-22T04:56:26.512Z,11.63
2023-03-22T04:58:53.391Z,12.10
2023-03-22T05:01:20.276Z,11.57
2023-03-22T05:03:47.609Z,11.23
2023-03-22T05:06:15.153Z,10.52
2023-03-22T05:08:42.492Z,11.68
2023-03-22T05:11:13.648Z,10.68
2023-03-22T05:13:41.242Z,10.75
2023-03-22T05:16:10.536Z,10.93
2023-03-22T05:18:42.543Z,10.23
2023-03-22T05:21:17.960Z,10.57
2023-03-22T05:23:46.081Z,9.82
2023-03-22T05:26:15.762Z,10.38
2023-03-22T05:28:44.328Z,9.45
2023-03-22T05:31:15.056Z,8.20
2023-03-22T05:33:45.153Z,9.88
2023-03-22T05:36:12.245Z,9.52
2023-03-22T05:38:39.191Z,9.65
2023-03-22T05:41:07.331Z,9.77
2023-03-22T05:43:34.252Z,8.63
2023-03-22T05:46:01.063Z,9.50
2023-03-22T05:48:27.878Z,9.63
2023-03-22T05:50:54.660Z,8.60
2023-03-22T05:53:21.651Z,9.02
2023-03-22T05:55:48.432Z,8.88
2023-03-22T05:58:20.851Z,8.90
2023-03-22T06:00:49.979Z,8.30
2023-03-22T06:03:18.371Z,7.85
2023-03-22T06:05:46.616Z,7.10
2023-03-22T06:08:13.449Z,7.80
2023-03-22T06:10:40.355Z,7.90
2023-03-22T06:13:07.285Z,7.80
2023-03-22T06:15:34.073Z,7.07
2023-03-22T06:18:01.023Z,7.75
2023-03-22T06:20:27.862Z,7.82
2023-03-22T06:22:54.622Z,7.90
2023-03-22T06:25:21.542Z,6.05
2023-03-22T06:27:49.106Z,6.93
2023-03-22T06:30:15.986Z,6.88
2023-03-22T06:32:42.763Z,6.20
2023-03-22T06:35:12.076Z,6.60
2023-03-22T06:37:38.848Z,6.22
2023-03-22T06:40:06.264Z,7.32
2023-03-22T06:42:33.795Z,5.95
2023-03-22T06:45:01.106Z,5.75
2023-03-22T06:47:27.945Z,6.20
2023-03-22T06:49:54.784Z,5.68
2023-03-22T06:52:21.862Z,5.93
2023-03-22T06:54:48.675Z,5.20
2023-03-22T06:57:15.781Z,5.32
2023-03-22T06:59:43.587Z,6.50
2023-03-22T07:02:12.878Z,5.15
2023-03-22T07:04:39.809Z,6.13
2023-03-22T07:07:06.669Z,8.50
2023-03-22T07:09:33.409Z,4.68
2023-03-22T07:12:00.213Z,15.50
2023-03-22T07:14:27.197Z,6.47
2023-03-22T07:16:54.003Z,4.82
2023-03-22T07:19:20.853Z,7.13
2023-03-22T07:21:47.633Z,10.18
2023-03-22T07:24:14.548Z,4.93
2023-03-22T07:26:41.514Z,5.95
2023-03-22T07:29:11.662Z,4.20
2023-03-22T07:31:39.797Z,4.30
2023-03-22T07:34:07.083Z,4.93
2023-03-22T07:36:33.954Z,4.15
2023-03-22T07:39:01.470Z,4.47
2023-03-22T07:41:30.647Z,3.60
2023-03-22T07:44:11.234Z,4.57
2023-03-22T07:46:42.580Z,3.50
2023-03-22T07:49:09.507Z,3.60
2023-03-22T07:51:36.423Z,3.97
2023-03-22T07:54:03.481Z,3.22
2023-03-22T07:56:30.656Z,3.50
2023-03-22T07:58:57.522Z,4.18
2023-03-22T08:01:24.765Z,3.72
2023-03-22T08:03:51.553Z,3.10
2023-03-22T08:06:22.028Z,2.78
2023-03-22T08:08:48.829Z,3.30
2023-03-22T08:11:15.977Z,3.05
2023-03-22T08:13:42.925Z,3.47
2023-03-22T08:16:10.140Z,3.30
2023-03-22T08:18:37.195Z,3.80
2023-03-22T08:21:04.455Z,2.72
2023-03-22T08:23:41.380Z,2.88
2023-03-22T08:26:10.716Z,3.63
2023-03-22T08:28:37.816Z,1.95
2023-03-22T08:31:14.701Z,3.20
2023-03-22T08:33:43.627Z,2.63
2023-03-22T08:36:17.636Z,3.10
2023-03-22T08:38:46.233Z,3.33
2023-03-22T08:41:13.493Z,3.20
2023-03-22T08:43:40.687Z,3.00
2023-03-22T08:46:08.476Z,3.40
2023-03-22T08:48:40.451Z,2.90
2023-03-22T08:51:07.604Z,3.60
2023-03-22T08:53:34.779Z,3.10
2023-03-22T08:56:02.401Z,3.45
2023-03-22T08:58:29.185Z,4.05
2023-03-22T09:00:57.474Z,2.92
2023-03-22T09:03:25.260Z,2.83
2023-03-22T09:05:52.252Z,3.90
2023-03-22T09:08:20.150Z,2.50
2023-03-22T09:10:51.440Z,2.80
2023-03-22T09:15:45.787Z,3.67
2023-03-22T09:18:12.967Z,3.78
2023-03-22T09:20:41.664Z,2.55
2023-03-22T09:23:08.905Z,3.08
2023-03-22T09:25:37.354Z,3.10
2023-03-22T09:28:05.030Z,3.17
2023-03-22T09:30:31.873Z,2.78
2023-03-22T09:32:58.907Z,3.17
2023-03-22T09:35:26.403Z,3.97
2023-03-22T09:37:54.671Z,3.35
2023-03-22T09:40:26.850Z,4.30
2023-03-22T09:42:56.998Z,3.50
2023-03-22T09:45:41.108Z,2.80
2023-03-22T09:48:35.834Z,3.60
2023-03-22T09:51:09.916Z,3.05
2023-03-22T09:53:36.751Z,3.55
2023-03-22T09:56:20.789Z,4.65
2023-03-22T09:59:07.943Z,4.32
2023-03-22T10:01:58.549Z,3.35
2023-03-22T10:04:34.473Z,3.25
2023-03-22T10:07:23.285Z,3.85
2023-03-22T10:10:11.353Z,5.25
2023-03-22T10:13:01.371Z,3.30
2023-03-22T10:15:46.891Z,3.78
2023-03-22T10:18:20.236Z,3.45
2023-03-22T10:20:47.024Z,3.58
2023-03-22T10:23:20.096Z,3.95
2023-03-22T10:25:47.868Z,4.35
2023-03-22T10:28:21.201Z,4.68
2023-03-22T10:30:53.558Z,4.20
2023-03-22T10:33:43.520Z,4.00
2023-03-22T10:36:14.820Z,4.07
2023-03-22T10:39:10.039Z,3.47
2023-03-22T10:41:37.622Z,4.80
2023-03-22T10:44:06.552Z,3.67
2023-03-22T10:46:39.880Z,4.85
2023-03-22T10:49:13.267Z,3.70
2023-03-22T10:51:46.470Z,3.58
2023-03-22T10:54:16.228Z,3.63
2023-03-22T10:56:44.985Z,3.53
2023-03-22T10:59:48.905Z,4.07
2023-03-22T11:02:23.471Z,3.85
2023-03-22T11:04:53.052Z,4.53
2023-03-22T11:07:35.423Z,3.60
2023-03-22T11:10:29.958Z,3.67
2023-03-22T11:13:19.411Z,3.90
2023-03-22T11:16:03.789Z,4.20
2023-03-22T11:18:33.004Z,3.95
2023-03-22T11:21:12.009Z,3.25
2023-03-22T11:23:42.566Z,3.40
2023-03-22T11:26:12.454Z,3.27
2023-03-22T11:28:51.166Z,3.63
2023-03-22T11:31:20.648Z,3.80
2023-03-22T11:34:02.009Z,4.80
2023-03-22T11:36:29.685Z,3.50
2023-03-22T11:39:04.314Z,3.20
2023-03-22T11:41:39.807Z,3.00
2023-03-22T11:44:14.459Z,3.03
2023-03-22T11:46:54.598Z,2.30
2023-03-22T11:49:27.074Z,2.72
2023-03-22T11:51:55.675Z,3.28
2023-03-22T11:54:36.235Z,2.22
2023-03-22T11:57:06.033Z,3.13
2023-03-22T11:59:45.925Z,3.08
2023-03-22T12:02:20.446Z,3.70
2023-03-22T12:04:50.047Z,2.13
2023-03-22T12:07:20.895Z,3.00
2023-03-22T12:09:52.975Z,2.28
2023-03-22T12:12:35.613Z,2.40
2023-03-22T12:15:23.543Z,2.92
2023-03-22T12:18:01.962Z,2.17
2023-03-22T12:20:39.654Z,2.78
2023-03-22T12:23:17.035Z,2.83
2023-03-22T12:25:54.822Z,3.13
2023-03-22T12:28:28.289Z,2.97
2023-03-22T12:30:57.823Z,3.05
2023-03-22T12:33:48.070Z,3.88
2023-03-22T12:36:30.308Z,2.80
2023-03-22T12:38:59.774Z,2.70
2023-03-22T12:41:47.211Z,2.88
2023-03-22T12:44:36.073Z,2.80
2023-03-22T12:47:20.711Z,2.75
2023-03-22T12:50:06.143Z,3.00
2023-03-22T12:52:54.892Z,2.70
2023-03-22T12:55:30.874Z,2.88
2023-03-22T12:57:58.210Z,2.70
2023-03-22T13:00:58.639Z,4.30
2023-03-22T13:03:39.390Z,3.35
2023-03-22T13:06:28.081Z,3.15
2023-03-22T13:09:16.225Z,3.20
2023-03-22T13:12:15.320Z,3.30
2023-03-22T13:15:01.072Z,3.20
2023-03-22T13:17:30.546Z,3.50
2023-03-22T13:20:04.405Z,3.38
2023-03-22T13:22:51.322Z,3.22
2023-03-22T13:25:19.155Z,3.25
2023-03-22T13:27:46.086Z,3.25
2023-03-22T13:30:22.096Z,3.38
2023-03-22T13:33:10.384Z,3.30
2023-03-22T13:35:54.450Z,3.40
2023-03-22T13:38:43.013Z,2.97
2023-03-22T13:41:22.577Z,3.13
2023-03-22T13:43:55.836Z,3.47
2023-03-22T13:46:22.784Z,2.90
2023-03-22T13:48:50.758Z,3.63
2023-03-22T13:51:37.931Z,3.10
2023-03-22T13:54:07.525Z,2.50
2023-03-22T13:56:47.665Z,2.97
2023-03-22T13:59:23.058Z,3.35
2023-03-22T14:02:05.051Z,3.22
2023-03-22T14:04:46.586Z,4.32
2023-03-22T14:07:38.732Z,3.40
2023-03-22T14:10:17.507Z,3.20
2023-03-22T14:12:50.454Z,3.38
2023-03-22T14:15:23.177Z,2.80
2023-03-22T14:17:55.757Z,3.17
2023-03-22T14:20:26.673Z,2.50
